Flight Track Log - Related Links

Times and Time Zones

All times are in EDT time to prevent confusion due to time zone crossing. See the GLA154 flight status page for this flight to view local times or setup timezone preferences in your user account.

Time Position Orientation Groundspeed Altitude Reporting Facility
EDT Latitude Longitude Course Direction KTS MPH feet Rate Location/Type
Tue 09:43:22 AM 34.6361 -112.4503 301° West 142 163 6,700  Level Los Angeles Center
Tue 09:43:22 AM 34.6361 -112.4503 301° West 141 162 6,700 2,516 Level Albuquerque Center
Tue 09:44:24 AM 34.6803 -112.4764 334° Northwest 198 228 9,300 2,488 Climbing Albuquerque Center
Tue 09:45:25 AM 34.7353 -112.5158 329° Northwest 194 223 11,800 1,869 Climbing Albuquerque Center
Tue 09:46:26 AM 34.7636 -112.5708 302° West 189 217 13,100 1,082 Climbing Albuquerque Center
Tue 09:47:27 AM 34.7917 -112.6303 300° West 199 229 14,000 885 Climbing Albuquerque Center
Tue 09:48:00 AM 35.1861 -112.9890 301° West  Level FlightAware Approximate
Tue 09:48:28 AM 34.8225 -112.6911 302° West 208 239 14,900  Level Albuquerque Center
Tue 09:49:30 AM 34.8567 -112.7533 304° West 218 251 16,000 634 Climbing Albuquerque Center
Tue 09:50:31 AM 34.8889 -112.8200 301° West 225 259 16,200  Climbing Albuquerque Center
Tue 09:51:32 AM 34.9211 -112.8939 298° West 240 276 16,000 -49 Descending Albuquerque Center
Tue 09:52:33 AM 34.9531 -112.9689 297° West 247 284 16,100 49 Climbing Albuquerque Center
Tue 09:53:35 AM 34.9856 -113.0411 299° West 244 281 16,100 -49 Level Albuquerque Center
Tue 09:54:36 AM 35.0186 -113.1125 299° West 242 278 16,000 -49 Descending Albuquerque Center
Tue 09:55:37 AM 35.0553 -113.1950 299° West 233 268 16,000 49 Level Albuquerque Center
Tue 09:56:39 AM 35.0800 -113.2658 293° West 228 262 16,100 49 Climbing Albuquerque Center
Tue 09:57:40 AM 35.1064 -113.3358 295° West 227 261 16,100 -639 Level Albuquerque Center
Tue 09:58:41 AM 35.1289 -113.4067 291° West 224 258 14,800 -1,325 Descending Albuquerque Center
Tue 09:58:57 AM 35.1331 -113.4217 289° West 223 257 14,400 -1,558 Descending Los Angeles Center
Tue 09:59:58 AM 35.1492 -113.4950 285° West 223 257 12,800 -1,574 Descending Los Angeles Center

Login

Don't have an account? Register now (free) for customized features, flight alerts, and more!